sensor_id;sensor_type;location;lat;lon;timestamp;P1;durP1;ratioP1;P2;durP2;ratioP2
19554;SDS011;9924;50.828;6.440;2022-10-16T00:01:15;1.65;;;1.15;;
19554;SDS011;9924;50.828;6.440;2022-10-16T00:03:44;0.80;;;0.80;;
19554;SDS011;9924;50.828;6.440;2022-10-16T00:06:12;2.83;;;1.00;;
19554;SDS011;9924;50.828;6.440;2022-10-16T00:08:38;2.75;;;1.05;;
19554;SDS011;9924;50.828;6.440;2022-10-16T00:11:12;2.38;;;0.80;;
19554;SDS011;9924;50.828;6.440;2022-10-16T00:13:39;1.10;;;1.00;;
19554;SDS011;9924;50.828;6.440;2022-10-16T00:16:06;3.80;;;0.93;;
19554;SDS011;9924;50.828;6.440;2022-10-16T00:18:33;1.02;;;0.82;;
19554;SDS011;9924;50.828;6.440;2022-10-16T00:21:06;2.90;;;0.82;;
19554;SDS011;9924;50.828;6.440;2022-10-16T00:23:40;3.00;;;0.90;;
19554;SDS011;9924;50.828;6.440;2022-10-16T00:26:08;2.10;;;0.80;;
19554;SDS011;9924;50.828;6.440;2022-10-16T00:28:35;1.25;;;0.95;;
19554;SDS011;9924;50.828;6.440;2022-10-16T00:31:03;4.45;;;1.40;;
19554;SDS011;9924;50.828;6.440;2022-10-16T00:33:30;1.38;;;1.02;;
19554;SDS011;9924;50.828;6.440;2022-10-16T00:35:57;2.53;;;1.02;;
19554;SDS011;9924;50.828;6.440;2022-10-16T00:38:24;3.33;;;1.10;;
19554;SDS011;9924;50.828;6.440;2022-10-16T00:40:50;1.17;;;1.00;;
19554;SDS011;9924;50.828;6.440;2022-10-16T00:43:36;1.80;;;1.00;;
19554;SDS011;9924;50.828;6.440;2022-10-16T00:46:08;1.45;;;1.10;;
19554;SDS011;9924;50.828;6.440;2022-10-16T00:49:03;1.40;;;0.85;;
19554;SDS011;9924;50.828;6.440;2022-10-16T00:54:12;2.67;;;1.08;;
19554;SDS011;9924;50.828;6.440;2022-10-16T00:56:45;1.17;;;0.93;;
19554;SDS011;9924;50.828;6.440;2022-10-16T00:59:20;1.65;;;1.10;;
19554;SDS011;9924;50.828;6.440;2022-10-16T01:02:06;2.53;;;1.20;;
19554;SDS011;9924;50.828;6.440;2022-10-16T01:04:38;1.60;;;1.10;;
19554;SDS011;9924;50.828;6.440;2022-10-16T01:07:16;1.30;;;1.20;;
19554;SDS011;9924;50.828;6.440;2022-10-16T01:09:53;2.05;;;1.30;;
19554;SDS011;9924;50.828;6.440;2022-10-16T01:15:24;4.50;;;1.50;;
19554;SDS011;9924;50.828;6.440;2022-10-16T01:17:58;2.17;;;1.30;;
19554;SDS011;9924;50.828;6.440;2022-10-16T01:20:29;1.88;;;1.30;;
19554;SDS011;9924;50.828;6.440;2022-10-16T01:23:20;1.45;;;1.10;;
19554;SDS011;9924;50.828;6.440;2022-10-16T01:28:49;4.38;;;1.23;;
19554;SDS011;9924;50.828;6.440;2022-10-16T01:31:22;5.10;;;1.20;;
19554;SDS011;9924;50.828;6.440;2022-10-16T01:33:54;2.17;;;1.05;;
19554;SDS011;9924;50.828;6.440;2022-10-16T01:36:27;1.27;;;1.15;;
19554;SDS011;9924;50.828;6.440;2022-10-16T01:39:00;1.33;;;1.10;;
19554;SDS011;9924;50.828;6.440;2022-10-16T01:41:30;2.90;;;1.17;;
19554;SDS011;9924;50.828;6.440;2022-10-16T01:44:14;2.20;;;1.40;;
19554;SDS011;9924;50.828;6.440;2022-10-16T01:46:48;3.03;;;1.15;;
19554;SDS011;9924;50.828;6.440;2022-10-16T01:49:16;2.55;;;1.10;;
19554;SDS011;9924;50.828;6.440;2022-10-16T01:51:44;2.40;;;1.05;;
19554;SDS011;9924;50.828;6.440;2022-10-16T01:54:13;2.42;;;1.30;;
19554;SDS011;9924;50.828;6.440;2022-10-16T01:56:41;1.20;;;0.90;;
19554;SDS011;9924;50.828;6.440;2022-10-16T01:59:12;2.75;;;0.82;;
19554;SDS011;9924;50.828;6.440;2022-10-16T02:01:43;3.40;;;0.90;;
19554;SDS011;9924;50.828;6.440;2022-10-16T02:04:31;0.88;;;0.88;;
19554;SDS011;9924;50.828;6.440;2022-10-16T02:07:05;2.65;;;0.75;;
19554;SDS011;9924;50.828;6.440;2022-10-16T02:09:35;0.95;;;0.70;;
19554;SDS011;9924;50.828;6.440;2022-10-16T02:12:06;3.15;;;0.70;;
19554;SDS011;9924;50.828;6.440;2022-10-16T02:14:40;1.95;;;0.90;;
19554;SDS011;9924;50.828;6.440;2022-10-16T02:17:10;1.77;;;0.90;;
19554;SDS011;9924;50.828;6.440;2022-10-16T02:19:37;0.70;;;0.60;;
19554;SDS011;9924;50.828;6.440;2022-10-16T02:22:03;0.90;;;0.70;;
19554;SDS011;9924;50.828;6.440;2022-10-16T02:24:43;2.47;;;1.30;;
19554;SDS011;9924;50.828;6.440;2022-10-16T02:27:26;2.72;;;0.82;;
19554;SDS011;9924;50.828;6.440;2022-10-16T02:32:49;4.93;;;0.90;;
19554;SDS011;9924;50.828;6.440;2022-10-16T02:35:17;2.50;;;0.88;;
19554;SDS011;9924;50.828;6.440;2022-10-16T02:37:45;1.95;;;0.60;;
19554;SDS011;9924;50.828;6.440;2022-10-16T02:40:12;1.48;;;0.70;;
19554;SDS011;9924;50.828;6.440;2022-10-16T02:42:39;0.93;;;0.80;;
19554;SDS011;9924;50.828;6.440;2022-10-16T02:45:06;0.75;;;0.70;;
19554;SDS011;9924;50.828;6.440;2022-10-16T02:47:33;1.13;;;0.80;;
19554;SDS011;9924;50.828;6.440;2022-10-16T02:49:59;0.75;;;0.75;;
19554;SDS011;9924;50.828;6.440;2022-10-16T02:52:26;1.50;;;0.80;;
19554;SDS011;9924;50.828;6.440;2022-10-16T02:54:51;1.48;;;0.73;;
19554;SDS011;9924;50.828;6.440;2022-10-16T02:57:17;0.80;;;0.80;;
19554;SDS011;9924;50.828;6.440;2022-10-16T02:59:43;2.05;;;0.82;;
19554;SDS011;9924;50.828;6.440;2022-10-16T03:02:10;5.00;;;1.10;;
19554;SDS011;9924;50.828;6.440;2022-10-16T03:04:36;2.05;;;1.00;;
19554;SDS011;9924;50.828;6.440;2022-10-16T03:07:02;1.30;;;0.93;;
19554;SDS011;9924;50.828;6.440;2022-10-16T03:09:28;2.25;;;0.88;;
19554;SDS011;9924;50.828;6.440;2022-10-16T03:11:54;2.10;;;0.95;;
19554;SDS011;9924;50.828;6.440;2022-10-16T03:14:20;2.63;;;1.00;;
19554;SDS011;9924;50.828;6.440;2022-10-16T03:16:45;0.80;;;0.80;;
19554;SDS011;9924;50.828;6.440;2022-10-16T03:19:12;3.92;;;1.00;;
19554;SDS011;9924;50.828;6.440;2022-10-16T03:21:37;1.40;;;0.90;;
19554;SDS011;9924;50.828;6.440;2022-10-16T03:24:03;1.30;;;0.98;;
19554;SDS011;9924;50.828;6.440;2022-10-16T03:26:29;0.70;;;0.70;;
19554;SDS011;9924;50.828;6.440;2022-10-16T03:28:55;1.10;;;0.90;;
19554;SDS011;9924;50.828;6.440;2022-10-16T03:31:20;1.65;;;0.80;;
19554;SDS011;9924;50.828;6.440;2022-10-16T03:33:47;3.55;;;0.90;;
19554;SDS011;9924;50.828;6.440;2022-10-16T03:36:12;1.20;;;0.90;;
19554;SDS011;9924;50.828;6.440;2022-10-16T03:38:38;1.52;;;1.02;;
19554;SDS011;9924;50.828;6.440;2022-10-16T03:41:04;1.45;;;1.10;;
19554;SDS011;9924;50.828;6.440;2022-10-16T03:43:30;2.42;;;1.00;;
19554;SDS011;9924;50.828;6.440;2022-10-16T03:45:56;2.38;;;1.05;;
19554;SDS011;9924;50.828;6.440;2022-10-16T03:48:21;1.02;;;0.77;;
19554;SDS011;9924;50.828;6.440;2022-10-16T03:50:47;1.20;;;0.88;;
19554;SDS011;9924;50.828;6.440;2022-10-16T03:53:13;3.15;;;0.95;;
19554;SDS011;9924;50.828;6.440;2022-10-16T03:55:43;1.77;;;1.00;;
19554;SDS011;9924;50.828;6.440;2022-10-16T03:58:09;3.92;;;1.10;;
19554;SDS011;9924;50.828;6.440;2022-10-16T04:00:39;3.20;;;1.00;;
19554;SDS011;9924;50.828;6.440;2022-10-16T04:03:08;1.77;;;0.88;;
19554;SDS011;9924;50.828;6.440;2022-10-16T04:05:34;1.65;;;0.98;;
19554;SDS011;9924;50.828;6.440;2022-10-16T04:08:00;2.47;;;1.20;;
19554;SDS011;9924;50.828;6.440;2022-10-16T04:10:26;0.90;;;0.80;;
19554;SDS011;9924;50.828;6.440;2022-10-16T04:12:51;1.17;;;0.90;;
19554;SDS011;9924;50.828;6.440;2022-10-16T04:15:19;1.77;;;0.98;;
19554;SDS011;9924;50.828;6.440;2022-10-16T04:17:46;4.93;;;1.15;;
19554;SDS011;9924;50.828;6.440;2022-10-16T04:20:12;1.98;;;1.17;;
19554;SDS011;9924;50.828;6.440;2022-10-16T04:22:37;4.05;;;1.40;;
19554;SDS011;9924;50.828;6.440;2022-10-16T04:25:04;1.17;;;1.08;;
19554;SDS011;9924;50.828;6.440;2022-10-16T04:27:30;2.03;;;1.17;;
19554;SDS011;9924;50.828;6.440;2022-10-16T04:29:56;1.60;;;1.10;;
19554;SDS011;9924;50.828;6.440;2022-10-16T04:32:23;2.03;;;1.40;;
19554;SDS011;9924;50.828;6.440;2022-10-16T04:34:49;4.70;;;1.30;;
19554;SDS011;9924;50.828;6.440;2022-10-16T04:37:14;1.48;;;1.10;;
19554;SDS011;9924;50.828;6.440;2022-10-16T04:39:40;1.25;;;1.15;;
19554;SDS011;9924;50.828;6.440;2022-10-16T04:42:06;1.40;;;1.20;;
19554;SDS011;9924;50.828;6.440;2022-10-16T04:44:32;1.63;;;1.38;;
19554;SDS011;9924;50.828;6.440;2022-10-16T04:46:58;3.30;;;1.58;;
19554;SDS011;9924;50.828;6.440;2022-10-16T04:49:23;3.65;;;1.42;;
19554;SDS011;9924;50.828;6.440;2022-10-16T04:51:49;1.98;;;1.17;;
19554;SDS011;9924;50.828;6.440;2022-10-16T04:54:15;1.83;;;1.33;;
19554;SDS011;9924;50.828;6.440;2022-10-16T04:56:41;3.38;;;1.23;;
19554;SDS011;9924;50.828;6.440;2022-10-16T04:59:15;3.85;;;1.40;;
19554;SDS011;9924;50.828;6.440;2022-10-16T05:01:42;1.75;;;1.40;;
19554;SDS011;9924;50.828;6.440;2022-10-16T05:04:08;1.48;;;1.10;;
19554;SDS011;9924;50.828;6.440;2022-10-16T05:06:35;3.35;;;2.00;;
19554;SDS011;9924;50.828;6.440;2022-10-16T05:09:01;1.88;;;1.50;;
19554;SDS011;9924;50.828;6.440;2022-10-16T05:11:26;1.90;;;1.52;;
19554;SDS011;9924;50.828;6.440;2022-10-16T05:13:52;4.93;;;1.40;;
19554;SDS011;9924;50.828;6.440;2022-10-16T05:16:19;2.45;;;1.70;;
19554;SDS011;9924;50.828;6.440;2022-10-16T05:18:45;3.67;;;1.73;;
19554;SDS011;9924;50.828;6.440;2022-10-16T05:21:10;1.75;;;1.48;;
19554;SDS011;9924;50.828;6.440;2022-10-16T05:23:36;4.35;;;1.65;;
19554;SDS011;9924;50.828;6.440;2022-10-16T05:26:02;6.45;;;1.92;;
19554;SDS011;9924;50.828;6.440;2022-10-16T05:28:29;4.75;;;2.00;;
19554;SDS011;9924;50.828;6.440;2022-10-16T05:30:55;1.90;;;1.52;;
19554;SDS011;9924;50.828;6.440;2022-10-16T05:33:22;5.95;;;1.70;;
19554;SDS011;9924;50.828;6.440;2022-10-16T05:35:49;2.25;;;1.80;;
19554;SDS011;9924;50.828;6.440;2022-10-16T05:38:18;3.85;;;1.85;;
19554;SDS011;9924;50.828;6.440;2022-10-16T05:40:50;2.72;;;1.45;;
19554;SDS011;9924;50.828;6.440;2022-10-16T05:43:17;1.95;;;1.55;;
19554;SDS011;9924;50.828;6.440;2022-10-16T05:45:43;2.17;;;1.50;;
19554;SDS011;9924;50.828;6.440;2022-10-16T05:48:09;2.08;;;1.88;;
19554;SDS011;9924;50.828;6.440;2022-10-16T05:50:35;3.25;;;1.90;;
19554;SDS011;9924;50.828;6.440;2022-10-16T05:53:00;2.00;;;1.70;;
19554;SDS011;9924;50.828;6.440;2022-10-16T05:55:26;3.25;;;1.83;;
19554;SDS011;9924;50.828;6.440;2022-10-16T05:57:54;2.28;;;1.83;;
19554;SDS011;9924;50.828;6.440;2022-10-16T06:00:20;1.75;;;1.65;;
19554;SDS011;9924;50.828;6.440;2022-10-16T06:02:46;3.97;;;1.95;;
19554;SDS011;9924;50.828;6.440;2022-10-16T06:05:11;2.72;;;1.77;;
19554;SDS011;9924;50.828;6.440;2022-10-16T06:07:37;2.85;;;2.00;;
19554;SDS011;9924;50.828;6.440;2022-10-16T06:10:04;2.72;;;2.22;;
19554;SDS011;9924;50.828;6.440;2022-10-16T06:12:30;4.38;;;2.40;;
19554;SDS011;9924;50.828;6.440;2022-10-16T06:14:55;7.13;;;3.53;;
19554;SDS011;9924;50.828;6.440;2022-10-16T06:17:21;2.90;;;2.30;;
19554;SDS011;9924;50.828;6.440;2022-10-16T06:19:47;3.65;;;3.17;;
19554;SDS011;9924;50.828;6.440;2022-10-16T06:22:13;5.13;;;2.70;;
19554;SDS011;9924;50.828;6.440;2022-10-16T06:24:38;3.03;;;2.33;;
19554;SDS011;9924;50.828;6.440;2022-10-16T06:27:04;3.50;;;2.33;;
19554;SDS011;9924;50.828;6.440;2022-10-16T06:29:30;3.55;;;2.30;;
19554;SDS011;9924;50.828;6.440;2022-10-16T06:31:56;4.43;;;2.60;;
19554;SDS011;9924;50.828;6.440;2022-10-16T06:34:22;5.43;;;2.80;;
19554;SDS011;9924;50.828;6.440;2022-10-16T06:36:48;7.95;;;2.67;;
19554;SDS011;9924;50.828;6.440;2022-10-16T06:39:14;4.32;;;2.15;;
19554;SDS011;9924;50.828;6.440;2022-10-16T06:41:40;3.85;;;2.30;;
19554;SDS011;9924;50.828;6.440;2022-10-16T06:44:06;4.18;;;2.13;;
19554;SDS011;9924;50.828;6.440;2022-10-16T06:46:33;2.83;;;2.30;;
19554;SDS011;9924;50.828;6.440;2022-10-16T06:48:59;4.05;;;2.75;;
19554;SDS011;9924;50.828;6.440;2022-10-16T06:51:28;5.05;;;2.47;;
19554;SDS011;9924;50.828;6.440;2022-10-16T06:53:55;6.07;;;2.40;;
19554;SDS011;9924;50.828;6.440;2022-10-16T06:56:24;3.47;;;2.47;;
19554;SDS011;9924;50.828;6.440;2022-10-16T06:58:51;3.17;;;2.28;;
19554;SDS011;9924;50.828;6.440;2022-10-16T07:01:18;2.13;;;1.70;;
19554;SDS011;9924;50.828;6.440;2022-10-16T07:03:48;1.90;;;1.70;;
19554;SDS011;9924;50.828;6.440;2022-10-16T07:06:15;2.65;;;1.48;;
19554;SDS011;9924;50.828;6.440;2022-10-16T07:08:44;2.60;;;1.50;;
19554;SDS011;9924;50.828;6.440;2022-10-16T07:11:14;2.50;;;1.30;;
19554;SDS011;9924;50.828;6.440;2022-10-16T07:13:42;2.72;;;1.27;;
19554;SDS011;9924;50.828;6.440;2022-10-16T07:16:13;1.75;;;1.10;;
19554;SDS011;9924;50.828;6.440;2022-10-16T07:18:41;2.30;;;1.00;;
19554;SDS011;9924;50.828;6.440;2022-10-16T07:21:17;1.30;;;1.00;;
19554;SDS011;9924;50.828;6.440;2022-10-16T07:23:45;2.15;;;1.02;;
19554;SDS011;9924;50.828;6.440;2022-10-16T07:26:18;2.03;;;1.20;;
19554;SDS011;9924;50.828;6.440;2022-10-16T07:28:44;1.98;;;0.90;;
19554;SDS011;9924;50.828;6.440;2022-10-16T07:31:11;2.95;;;0.82;;
19554;SDS011;9924;50.828;6.440;2022-10-16T07:33:39;2.28;;;0.73;;
19554;SDS011;9924;50.828;6.440;2022-10-16T07:36:07;1.63;;;0.90;;
19554;SDS011;9924;50.828;6.440;2022-10-16T07:38:33;1.42;;;0.63;;
19554;SDS011;9924;50.828;6.440;2022-10-16T07:41:00;1.83;;;0.93;;
19554;SDS011;9924;50.828;6.440;2022-10-16T07:43:27;0.88;;;0.75;;
19554;SDS011;9924;50.828;6.440;2022-10-16T07:45:54;1.50;;;0.80;;
19554;SDS011;9924;50.828;6.440;2022-10-16T07:48:20;0.63;;;0.55;;
19554;SDS011;9924;50.828;6.440;2022-10-16T07:50:48;2.00;;;0.73;;
19554;SDS011;9924;50.828;6.440;2022-10-16T07:53:14;1.50;;;0.88;;
19554;SDS011;9924;50.828;6.440;2022-10-16T07:55:40;1.25;;;0.80;;
19554;SDS011;9924;50.828;6.440;2022-10-16T07:58:06;4.38;;;0.75;;
19554;SDS011;9924;50.828;6.440;2022-10-16T08:00:32;1.25;;;0.88;;
19554;SDS011;9924;50.828;6.440;2022-10-16T08:03:01;2.05;;;0.60;;
19554;SDS011;9924;50.828;6.440;2022-10-16T08:05:27;3.10;;;0.82;;
19554;SDS011;9924;50.828;6.440;2022-10-16T08:07:55;2.80;;;0.68;;
19554;SDS011;9924;50.828;6.440;2022-10-16T08:10:22;2.30;;;0.70;;
19554;SDS011;9924;50.828;6.440;2022-10-16T08:12:50;1.77;;;0.68;;
19554;SDS011;9924;50.828;6.440;2022-10-16T08:15:16;7.72;;;0.95;;
19554;SDS011;9924;50.828;6.440;2022-10-16T08:17:42;2.95;;;0.70;;
19554;SDS011;9924;50.828;6.440;2022-10-16T08:20:09;1.48;;;0.77;;
19554;SDS011;9924;50.828;6.440;2022-10-16T08:22:36;1.65;;;0.60;;
19554;SDS011;9924;50.828;6.440;2022-10-16T08:25:02;1.08;;;0.43;;
19554;SDS011;9924;50.828;6.440;2022-10-16T08:27:31;1.25;;;0.60;;
19554;SDS011;9924;50.828;6.440;2022-10-16T08:30:00;1.42;;;0.70;;
19554;SDS011;9924;50.828;6.440;2022-10-16T08:32:26;1.00;;;0.50;;
19554;SDS011;9924;50.828;6.440;2022-10-16T08:34:52;1.33;;;0.50;;
19554;SDS011;9924;50.828;6.440;2022-10-16T08:37:18;1.52;;;0.50;;
19554;SDS011;9924;50.828;6.440;2022-10-16T08:39:43;1.08;;;0.50;;
19554;SDS011;9924;50.828;6.440;2022-10-16T08:50:30;3.65;;;0.55;;
19554;SDS011;9924;50.828;6.440;2022-10-16T08:52:57;5.00;;;0.50;;
19554;SDS011;9924;50.828;6.440;2022-10-16T08:55:28;2.88;;;0.40;;
19554;SDS011;9924;50.828;6.440;2022-10-16T08:58:10;1.33;;;0.40;;
19554;SDS011;9924;50.828;6.440;2022-10-16T09:00:41;0.95;;;0.50;;
19554;SDS011;9924;50.828;6.440;2022-10-16T09:11:09;2.50;;;0.40;;
19554;SDS011;9924;50.828;6.440;2022-10-16T09:16:44;2.33;;;0.70;;
19554;SDS011;9924;50.828;6.440;2022-10-16T09:19:32;2.45;;;0.40;;
19554;SDS011;9924;50.828;6.440;2022-10-16T09:22:11;1.13;;;0.40;;
19554;SDS011;9924;50.828;6.440;2022-10-16T09:24:39;0.77;;;0.47;;
19554;SDS011;9924;50.828;6.440;2022-10-16T09:27:14;1.45;;;0.73;;
19554;SDS011;9924;50.828;6.440;2022-10-16T09:29:40;1.60;;;0.40;;
19554;SDS011;9924;50.828;6.440;2022-10-16T09:32:14;2.00;;;0.52;;
19554;SDS011;9924;50.828;6.440;2022-10-16T09:34:49;2.15;;;0.40;;
19554;SDS011;9924;50.828;6.440;2022-10-16T09:37:19;3.13;;;0.47;;
19554;SDS011;9924;50.828;6.440;2022-10-16T09:42:16;1.15;;;0.40;;
19554;SDS011;9924;50.828;6.440;2022-10-16T09:44:48;1.85;;;0.50;;
19554;SDS011;9924;50.828;6.440;2022-10-16T09:49:55;1.92;;;0.57;;
19554;SDS011;9924;50.828;6.440;2022-10-16T09:52:24;1.88;;;0.40;;
19554;SDS011;9924;50.828;6.440;2022-10-16T09:54:54;3.22;;;0.80;;
19554;SDS011;9924;50.828;6.440;2022-10-16T09:57:24;1.83;;;0.55;;
19554;SDS011;9924;50.828;6.440;2022-10-16T09:59:52;0.88;;;0.50;;
19554;SDS011;9924;50.828;6.440;2022-10-16T10:02:29;1.17;;;0.40;;
19554;SDS011;9924;50.828;6.440;2022-10-16T10:04:58;2.08;;;0.50;;
19554;SDS011;9924;50.828;6.440;2022-10-16T10:07:25;0.82;;;0.40;;
19554;SDS011;9924;50.828;6.440;2022-10-16T10:09:53;2.15;;;0.47;;
19554;SDS011;9924;50.828;6.440;2022-10-16T10:12:22;1.15;;;0.47;;
19554;SDS011;9924;50.828;6.440;2022-10-16T10:14:51;1.05;;;0.55;;
19554;SDS011;9924;50.828;6.440;2022-10-16T10:17:27;2.35;;;0.50;;
19554;SDS011;9924;50.828;6.440;2022-10-16T10:19:57;1.73;;;0.40;;
19554;SDS011;9924;50.828;6.440;2022-10-16T10:22:40;2.50;;;0.47;;
19554;SDS011;9924;50.828;6.440;2022-10-16T10:30:25;0.90;;;0.40;;
19554;SDS011;9924;50.828;6.440;2022-10-16T10:38:06;5.57;;;0.57;;
19554;SDS011;9924;50.828;6.440;2022-10-16T10:45:47;2.63;;;0.50;;
19554;SDS011;9924;50.828;6.440;2022-10-16T10:51:01;3.22;;;0.52;;
19554;SDS011;9924;50.828;6.440;2022-10-16T11:02:18;3.55;;;0.38;;
19554;SDS011;9924;50.828;6.440;2022-10-16T11:07:38;0.73;;;0.40;;
19554;SDS011;9924;50.828;6.440;2022-10-16T11:12:46;0.70;;;0.43;;
19554;SDS011;9924;50.828;6.440;2022-10-16T11:15:21;2.85;;;0.50;;
19554;SDS011;9924;50.828;6.440;2022-10-16T11:18:18;1.15;;;0.47;;
19554;SDS011;9924;50.828;6.440;2022-10-16T11:20:52;1.10;;;0.32;;
19554;SDS011;9924;50.828;6.440;2022-10-16T11:23:31;0.80;;;0.22;;
19554;SDS011;9924;50.828;6.440;2022-10-16T11:26:22;4.00;;;0.60;;
19554;SDS011;9924;50.828;6.440;2022-10-16T11:28:51;4.32;;;0.50;;
19554;SDS011;9924;50.828;6.440;2022-10-16T11:33:57;0.50;;;0.30;;
19554;SDS011;9924;50.828;6.440;2022-10-16T11:36:32;2.33;;;0.50;;
19554;SDS011;9924;50.828;6.440;2022-10-16T11:39:00;0.95;;;0.40;;
19554;SDS011;9924;50.828;6.440;2022-10-16T11:41:42;1.30;;;0.32;;
19554;SDS011;9924;50.828;6.440;2022-10-16T11:44:15;2.65;;;0.50;;
19554;SDS011;9924;50.828;6.440;2022-10-16T11:47:05;2.28;;;0.30;;
19554;SDS011;9924;50.828;6.440;2022-10-16T11:49:45;3.55;;;0.77;;
19554;SDS011;9924;50.828;6.440;2022-10-16T11:57:40;1.60;;;0.30;;
19554;SDS011;9924;50.828;6.440;2022-10-16T12:08:06;0.85;;;0.40;;
19554;SDS011;9924;50.828;6.440;2022-10-16T12:10:32;2.15;;;0.40;;
19554;SDS011;9924;50.828;6.440;2022-10-16T12:13:05;0.90;;;0.40;;
19554;SDS011;9924;50.828;6.440;2022-10-16T12:15:49;0.35;;;0.30;;
19554;SDS011;9924;50.828;6.440;2022-10-16T12:18:22;1.10;;;0.40;;
19554;SDS011;9924;50.828;6.440;2022-10-16T12:20:55;2.15;;;0.35;;
19554;SDS011;9924;50.828;6.440;2022-10-16T12:23:29;1.90;;;0.30;;
19554;SDS011;9924;50.828;6.440;2022-10-16T12:25:56;1.55;;;0.32;;
19554;SDS011;9924;50.828;6.440;2022-10-16T12:28:27;1.17;;;0.30;;
19554;SDS011;9924;50.828;6.440;2022-10-16T12:31:02;0.88;;;0.30;;
19554;SDS011;9924;50.828;6.440;2022-10-16T12:33:33;1.15;;;0.40;;
19554;SDS011;9924;50.828;6.440;2022-10-16T12:36:02;1.33;;;0.40;;
19554;SDS011;9924;50.828;6.440;2022-10-16T12:38:36;0.50;;;0.30;;
19554;SDS011;9924;50.828;6.440;2022-10-16T12:41:23;1.63;;;0.47;;
19554;SDS011;9924;50.828;6.440;2022-10-16T12:43:56;6.18;;;0.50;;
19554;SDS011;9924;50.828;6.440;2022-10-16T12:49:04;1.88;;;0.50;;
19554;SDS011;9924;50.828;6.440;2022-10-16T12:51:41;1.77;;;0.43;;
19554;SDS011;9924;50.828;6.440;2022-10-16T13:07:48;1.10;;;0.40;;
19554;SDS011;9924;50.828;6.440;2022-10-16T13:13:30;2.13;;;0.40;;
19554;SDS011;9924;50.828;6.440;2022-10-16T13:29:14;2.13;;;0.60;;
19554;SDS011;9924;50.828;6.440;2022-10-16T13:31:41;0.57;;;0.30;;
19554;SDS011;9924;50.828;6.440;2022-10-16T13:34:19;2.70;;;0.38;;
19554;SDS011;9924;50.828;6.440;2022-10-16T13:36:48;0.88;;;0.30;;
19554;SDS011;9924;50.828;6.440;2022-10-16T13:39:23;1.15;;;0.60;;
19554;SDS011;9924;50.828;6.440;2022-10-16T13:42:06;0.93;;;0.40;;
19554;SDS011;9924;50.828;6.440;2022-10-16T13:44:47;3.17;;;0.65;;
19554;SDS011;9924;50.828;6.440;2022-10-16T13:50:04;1.45;;;0.68;;
19554;SDS011;9924;50.828;6.440;2022-10-16T13:52:40;0.90;;;0.60;;
19554;SDS011;9924;50.828;6.440;2022-10-16T13:55:13;1.95;;;0.60;;
19554;SDS011;9924;50.828;6.440;2022-10-16T13:57:40;0.93;;;0.40;;
19554;SDS011;9924;50.828;6.440;2022-10-16T14:00:21;1.08;;;0.38;;
19554;SDS011;9924;50.828;6.440;2022-10-16T14:02:55;3.28;;;0.30;;
19554;SDS011;9924;50.828;6.440;2022-10-16T14:05:26;0.50;;;0.38;;
19554;SDS011;9924;50.828;6.440;2022-10-16T14:07:51;0.68;;;0.50;;
19554;SDS011;9924;50.828;6.440;2022-10-16T14:10:24;1.25;;;0.40;;
19554;SDS011;9924;50.828;6.440;2022-10-16T14:12:59;2.90;;;0.30;;
19554;SDS011;9924;50.828;6.440;2022-10-16T14:15:29;2.28;;;0.40;;
19554;SDS011;9924;50.828;6.440;2022-10-16T14:17:59;0.30;;;0.30;;
19554;SDS011;9924;50.828;6.440;2022-10-16T14:20:26;1.70;;;0.40;;
19554;SDS011;9924;50.828;6.440;2022-10-16T14:22:58;0.57;;;0.40;;
19554;SDS011;9924;50.828;6.440;2022-10-16T14:25:45;2.63;;;1.02;;
19554;SDS011;9924;50.828;6.440;2022-10-16T14:28:15;0.90;;;0.40;;
19554;SDS011;9924;50.828;6.440;2022-10-16T14:30:58;1.63;;;0.60;;
19554;SDS011;9924;50.828;6.440;2022-10-16T14:38:35;0.47;;;0.30;;
19554;SDS011;9924;50.828;6.440;2022-10-16T14:41:03;1.17;;;0.40;;
19554;SDS011;9924;50.828;6.440;2022-10-16T14:43:36;0.65;;;0.32;;
19554;SDS011;9924;50.828;6.440;2022-10-16T14:46:14;0.47;;;0.38;;
19554;SDS011;9924;50.828;6.440;2022-10-16T14:48:43;0.40;;;0.30;;
19554;SDS011;9924;50.828;6.440;2022-10-16T14:51:13;0.43;;;0.30;;
19554;SDS011;9924;50.828;6.440;2022-10-16T14:53:40;1.17;;;0.40;;
19554;SDS011;9924;50.828;6.440;2022-10-16T14:56:14;0.22;;;0.22;;
19554;SDS011;9924;50.828;6.440;2022-10-16T14:58:51;2.28;;;0.40;;
19554;SDS011;9924;50.828;6.440;2022-10-16T15:01:18;1.15;;;0.60;;
19554;SDS011;9924;50.828;6.440;2022-10-16T15:03:45;4.53;;;0.43;;
19554;SDS011;9924;50.828;6.440;2022-10-16T15:06:11;0.47;;;0.38;;
19554;SDS011;9924;50.828;6.440;2022-10-16T15:08:37;0.30;;;0.30;;
19554;SDS011;9924;50.828;6.440;2022-10-16T15:11:03;0.85;;;0.32;;
19554;SDS011;9924;50.828;6.440;2022-10-16T15:13:30;0.73;;;0.60;;
19554;SDS011;9924;50.828;6.440;2022-10-16T15:15:55;0.45;;;0.30;;
19554;SDS011;9924;50.828;6.440;2022-10-16T15:18:21;0.43;;;0.30;;
19554;SDS011;9924;50.828;6.440;2022-10-16T15:20:48;1.58;;;0.40;;
19554;SDS011;9924;50.828;6.440;2022-10-16T15:23:17;0.47;;;0.40;;
19554;SDS011;9924;50.828;6.440;2022-10-16T15:25:48;1.35;;;0.50;;
19554;SDS011;9924;50.828;6.440;2022-10-16T15:28:15;0.57;;;0.30;;
19554;SDS011;9924;50.828;6.440;2022-10-16T15:30:42;1.20;;;0.40;;
19554;SDS011;9924;50.828;6.440;2022-10-16T15:33:13;0.88;;;0.57;;
19554;SDS011;9924;50.828;6.440;2022-10-16T15:35:40;0.80;;;0.65;;
19554;SDS011;9924;50.828;6.440;2022-10-16T15:38:08;0.88;;;0.40;;
19554;SDS011;9924;50.828;6.440;2022-10-16T15:40:37;0.73;;;0.60;;
19554;SDS011;9924;50.828;6.440;2022-10-16T15:43:03;2.45;;;0.60;;
19554;SDS011;9924;50.828;6.440;2022-10-16T15:45:29;0.63;;;0.63;;
19554;SDS011;9924;50.828;6.440;2022-10-16T15:47:55;1.88;;;0.60;;
19554;SDS011;9924;50.828;6.440;2022-10-16T15:50:21;0.95;;;0.40;;
19554;SDS011;9924;50.828;6.440;2022-10-16T15:52:47;2.08;;;0.50;;
19554;SDS011;9924;50.828;6.440;2022-10-16T15:55:14;0.50;;;0.50;;
19554;SDS011;9924;50.828;6.440;2022-10-16T15:57:40;0.95;;;0.60;;
19554;SDS011;9924;50.828;6.440;2022-10-16T16:00:08;1.48;;;0.60;;
19554;SDS011;9924;50.828;6.440;2022-10-16T16:02:43;2.53;;;0.70;;
19554;SDS011;9924;50.828;6.440;2022-10-16T16:05:14;2.22;;;0.80;;
19554;SDS011;9924;50.828;6.440;2022-10-16T16:07:40;1.08;;;0.30;;
19554;SDS011;9924;50.828;6.440;2022-10-16T16:10:07;1.20;;;0.60;;
19554;SDS011;9924;50.828;6.440;2022-10-16T16:12:35;2.03;;;0.47;;
19554;SDS011;9924;50.828;6.440;2022-10-16T16:15:02;1.27;;;0.57;;
19554;SDS011;9924;50.828;6.440;2022-10-16T16:17:30;1.65;;;0.60;;
19554;SDS011;9924;50.828;6.440;2022-10-16T16:19:56;0.95;;;0.55;;
19554;SDS011;9924;50.828;6.440;2022-10-16T16:22:22;1.58;;;0.90;;
19554;SDS011;9924;50.828;6.440;2022-10-16T16:24:49;1.48;;;0.80;;
19554;SDS011;9924;50.828;6.440;2022-10-16T16:27:15;3.85;;;1.27;;
19554;SDS011;9924;50.828;6.440;2022-10-16T16:29:43;4.97;;;0.90;;
19554;SDS011;9924;50.828;6.440;2022-10-16T16:32:09;1.70;;;1.08;;
19554;SDS011;9924;50.828;6.440;2022-10-16T16:34:35;1.40;;;0.73;;
19554;SDS011;9924;50.828;6.440;2022-10-16T16:37:01;1.80;;;0.60;;
19554;SDS011;9924;50.828;6.440;2022-10-16T16:39:30;1.52;;;0.65;;
19554;SDS011;9924;50.828;6.440;2022-10-16T16:41:56;2.60;;;0.93;;
19554;SDS011;9924;50.828;6.440;2022-10-16T16:44:23;2.83;;;0.70;;
19554;SDS011;9924;50.828;6.440;2022-10-16T16:46:50;0.77;;;0.70;;
19554;SDS011;9924;50.828;6.440;2022-10-16T16:49:24;1.48;;;0.88;;
19554;SDS011;9924;50.828;6.440;2022-10-16T16:51:50;2.60;;;1.10;;
19554;SDS011;9924;50.828;6.440;2022-10-16T16:54:28;1.10;;;0.70;;
19554;SDS011;9924;50.828;6.440;2022-10-16T16:56:55;1.80;;;0.90;;
19554;SDS011;9924;50.828;6.440;2022-10-16T16:59:20;3.60;;;0.85;;
19554;SDS011;9924;50.828;6.440;2022-10-16T17:01:47;2.67;;;1.02;;
19554;SDS011;9924;50.828;6.440;2022-10-16T17:04:16;1.20;;;0.80;;
19554;SDS011;9924;50.828;6.440;2022-10-16T17:06:44;2.75;;;0.63;;
19554;SDS011;9924;50.828;6.440;2022-10-16T17:09:10;1.58;;;0.60;;
19554;SDS011;9924;50.828;6.440;2022-10-16T17:11:38;2.42;;;0.73;;
19554;SDS011;9924;50.828;6.440;2022-10-16T17:14:07;0.98;;;0.60;;
19554;SDS011;9924;50.828;6.440;2022-10-16T17:16:34;1.10;;;0.60;;
19554;SDS011;9924;50.828;6.440;2022-10-16T17:19:06;0.82;;;0.70;;